Time;durP1;ratioP1;P1;durP2;ratioP2;P2;SDS_P1;SDS_P2;PMS_P1;PMS_P2;Temp;Humidity;BMP_temperature;BMP_pressure;BME280_temperature;BME280_humidity;BME280_pressure;Samples;Min_cycle;Max_cycle;Signal;HPM_P1;HPM_P2
2021/08/07 00:02:02;;;;;;;4.68;3.38;;;563.70;1843.20;;;;;;5118119;27;20071;-81
2021/08/07 00:04:28;;;;;;;6.32;3.40;;;563.60;1868.80;;;;;;5118363;27;20031;-80
2021/08/07 00:06:54;;;;;;;7.32;3.28;;;563.50;1868.80;;;;;;5118364;27;20020;-82
2021/08/07 00:09:20;;;;;;;7.25;2.95;;;563.60;1868.80;;;;;;5136879;27;20379;-81
2021/08/07 00:11:46;;;;;;;7.93;2.75;;;563.60;1868.80;;;;;;5118470;27;20030;-81
2021/08/07 00:14:12;;;;;;;6.90;3.10;;;563.60;1868.80;;;;;;5118338;27;20028;-80
2021/08/07 00:16:38;;;;;;;4.20;2.83;;;563.50;1894.40;;;;;;5136388;27;20022;-81
2021/08/07 00:19:04;;;;;;;6.78;2.88;;;563.30;1894.40;;;;;;5118108;27;20134;-82
2021/08/07 00:21:30;;;;;;;4.05;3.05;;;563.30;1894.40;;;;;;5118150;27;20110;-81
2021/08/07 00:23:56;;;;;;;6.50;2.80;;;563.40;1868.80;;;;;;5117976;27;20023;-80
2021/08/07 00:26:22;;;;;;;6.18;2.70;;;563.40;1868.80;;;;;;5114272;28;20049;-80
2021/08/07 00:28:48;;;;;;;6.63;2.92;;;563.40;1868.80;;;;;;5115551;28;20024;-80
2021/08/07 00:31:14;;;;;;;5.82;2.67;;;563.40;1868.80;;;;;;5114386;28;20468;-80
2021/08/07 00:33:40;;;;;;;6.60;2.85;;;563.50;1868.80;;;;;;5114339;28;20032;-82
2021/08/07 00:36:07;;;;;;;4.25;2.20;;;563.40;1894.40;;;;;;5114258;28;20111;-80
2021/08/07 00:38:32;;;;;;;5.40;2.80;;;563.30;1868.80;;;;;;5114252;28;20035;-82
2021/08/07 00:40:58;;;;;;;5.13;3.03;;;563.40;1868.80;;;;;;5115588;28;20020;-82
2021/08/07 00:43:24;;;;;;;5.25;3.03;;;563.40;1868.80;;;;;;5114319;28;20072;-82
2021/08/07 00:45:50;;;;;;;4.78;2.80;;;563.40;1868.80;;;;;;5114292;28;20400;-80
2021/08/07 00:48:16;;;;;;;6.28;3.08;;;563.30;1868.80;;;;;;5114054;28;20471;-79
2021/08/07 00:50:48;;;;;;;5.95;3.08;;;563.20;1894.40;;;;;;5114955;28;20026;-79
2021/08/07 00:53:14;;;;;;;5.57;3.53;;;538.50;1894.40;;;;;;5113737;28;20023;-79
2021/08/07 00:55:41;;;;;;;9.10;3.65;;;538.30;1920.00;;;;;;5113818;28;20562;-79
2021/08/07 00:58:07;;;;;;;4.03;3.20;;;538.30;1894.40;;;;;;5113743;28;20042;-80
2021/08/07 01:00:33;;;;;;;6.88;3.78;;;538.30;1894.40;;;;;;5113885;28;20054;-79
2021/08/07 01:03:23;;;;;;;7.75;3.95;;;538.50;1868.80;;;;;;5113756;28;20020;-79
2021/08/07 01:06:08;;;;;;;4.45;3.67;;;563.20;1894.40;;;;;;5113811;28;20055;-80
2021/08/07 01:08:39;;;;;;;7.78;4.07;;;563.20;1894.40;;;;;;5114996;28;20030;-80
2021/08/07 01:11:11;;;;;;;6.30;4.03;;;538.50;1868.80;;;;;;5113520;28;20024;-77
2021/08/07 01:13:50;;;;;;;8.82;4.18;;;538.30;1894.40;;;;;;5113989;28;20590;-81
2021/08/07 01:16:29;;;;;;;5.50;4.03;;;538.30;1894.40;;;;;;5113810;28;20030;-81
2021/08/07 01:18:57;;;;;;;8.52;3.38;;;538.10;1920.00;;;;;;5113700;28;20062;-83
2021/08/07 01:21:29;;;;;;;10.18;3.92;;;538.20;1894.40;;;;;;5113549;28;20024;-84
2021/08/07 01:24:26;;;;;;;6.38;4.07;;;538.20;1894.40;;;;;;5114755;28;20016;-83
2021/08/07 01:26:56;;;;;;;5.03;3.80;;;538.20;1894.40;;;;;;5120686;27;20043;-81
2021/08/07 01:29:24;;;;;;;5.68;3.80;;;538.20;1894.40;;;;;;5116739;27;20027;-80
2021/08/07 01:31:51;;;;;;;5.55;4.10;;;538.30;1894.40;;;;;;5116648;27;20027;-80
2021/08/07 01:34:19;;;;;;;5.68;4.30;;;538.30;1868.80;;;;;;5134841;27;20374;-80
2021/08/07 01:36:47;;;;;;;8.73;4.13;;;538.20;1894.40;;;;;;5135035;27;20482;-78
2021/08/07 01:39:12;;;;;;;6.20;4.28;;;538.20;1894.40;;;;;;5116357;28;20033;-79
2021/08/07 01:41:39;;;;;;;9.45;4.10;;;538.20;1868.80;;;;;;5134421;27;20019;-78
2021/08/07 01:44:05;;;;;;;8.90;4.07;;;538.30;1868.80;;;;;;5116326;28;20114;-79
2021/08/07 01:47:01;;;;;;;7.07;3.97;;;538.30;1868.80;;;;;;5134574;28;20019;-79
2021/08/07 01:49:34;;;;;;;8.02;4.32;;;538.30;1868.80;;;;;;5110733;28;20057;-80
2021/08/07 01:52:08;;;;;;;10.80;4.95;;;538.30;1868.80;;;;;;5116371;28;20027;-77
2021/08/07 01:54:41;;;;;;;8.23;4.63;;;538.30;1868.80;;;;;;5117508;28;20034;-82
2021/08/07 01:57:11;;;;;;;6.25;4.35;;;538.30;1868.80;;;;;;5114250;28;20015;-83
2021/08/07 01:59:39;;;;;;;8.50;4.57;;;538.30;1868.80;;;;;;5114273;28;20110;-82
2021/08/07 02:02:06;;;;;;;5.78;4.80;;;538.30;1868.80;;;;;;5095972;28;20083;-81
2021/08/07 02:04:33;;;;;;;6.30;4.15;;;538.30;1868.80;;;;;;5096315;28;20395;-82
2021/08/07 02:06:59;;;;;;;12.27;5.38;;;538.20;1868.80;;;;;;5096341;28;20069;-83
2021/08/07 02:09:27;;;;;;;7.93;5.13;;;538.20;1868.80;;;;;;5096279;28;20028;-82
2021/08/07 02:11:54;;;;;;;9.02;5.00;;;538.20;1868.80;;;;;;5096180;28;20539;-78
2021/08/07 02:14:22;;;;;;;9.02;5.15;;;538.10;1868.80;;;;;;5095336;28;20028;-78
2021/08/07 02:16:48;;;;;;;5.35;4.55;;;538.10;1894.40;;;;;;5095233;28;20027;-77
2021/08/07 02:19:15;;;;;;;5.93;4.28;;;538.10;1894.40;;;;;;5095401;28;20375;-78
2021/08/07 02:21:42;;;;;;;8.23;4.40;;;538.10;1894.40;;;;;;5113160;28;20106;-77
2021/08/07 02:24:08;;;;;;;8.63;5.05;;;538.10;1894.40;;;;;;5113955;28;20038;-77
2021/08/07 02:26:35;;;;;;;4.70;4.20;;;538.10;1894.40;;;;;;5079807;28;20137;-81
2021/08/07 02:29:02;;;;;;;6.43;4.22;;;538.10;1894.40;;;;;;5073368;28;20442;-81
2021/08/07 02:31:28;;;;;;;4.70;3.92;;;538.10;1920.00;;;;;;5072215;28;20029;-81
2021/08/07 02:33:56;;;;;;;7.60;4.03;;;538.10;1920.00;;;;;;5073284;28;20017;-80
2021/08/07 02:36:23;;;;;;;5.40;4.20;;;538.10;1920.00;;;;;;5073291;28;20024;-79
2021/08/07 02:38:49;;;;;;;11.10;4.43;;;537.90;1945.60;;;;;;5073050;28;20115;-79
2021/08/07 02:41:16;;;;;;;7.90;4.60;;;537.80;1945.60;;;;;;5073236;28;20477;-80
2021/08/07 02:43:42;;;;;;;14.07;5.00;;;537.90;1920.00;;;;;;5072300;28;20028;-82
2021/08/07 02:46:09;;;;;;;6.60;4.22;;;537.80;1945.60;;;;;;5072972;28;20032;-79
2021/08/07 02:48:35;;;;;;;9.45;5.45;;;537.90;1920.00;;;;;;5073051;28;20047;-80
2021/08/07 02:51:02;;;;;;;10.75;5.00;;;538.00;1920.00;;;;;;5071568;28;20097;-79
2021/08/07 02:53:29;;;;;;;10.50;6.00;;;538.00;1920.00;;;;;;5075286;28;20032;-80
2021/08/07 02:55:55;;;;;;;12.55;6.35;;;537.90;1920.00;;;;;;5075603;28;20020;-81
2021/08/07 02:58:22;;;;;;;11.88;7.53;;;537.90;1920.00;;;;;;5077021;28;20109;-81
2021/08/07 03:00:49;;;;;;;18.45;7.85;;;537.90;1894.40;;;;;;5075353;28;20389;-80
2021/08/07 03:03:15;;;;;;;15.98;8.50;;;537.90;1894.40;;;;;;5075399;28;20501;-81
2021/08/07 03:05:42;;;;;;;14.50;8.98;;;538.00;1894.40;;;;;;5075437;28;20028;-79
2021/08/07 03:08:10;;;;;;;13.88;8.93;;;537.90;1894.40;;;;;;5076593;28;20021;-80
2021/08/07 03:10:36;;;;;;;17.02;9.25;;;537.90;1894.40;;;;;;5075338;28;20085;-80
2021/08/07 03:13:03;;;;;;;20.75;10.95;;;537.90;1894.40;;;;;;5075030;28;20032;-79
2021/08/07 03:15:29;;;;;;;19.80;11.02;;;537.80;1894.40;;;;;;5075029;28;20021;-80
2021/08/07 03:17:55;;;;;;;19.65;11.15;;;537.80;1894.40;;;;;;5075223;28;20059;-79
2021/08/07 03:20:30;;;;;;;15.30;11.00;;;537.90;1894.40;;;;;;5074780;28;20059;-79
2021/08/07 03:23:00;;;;;;;20.38;11.68;;;537.90;1868.80;;;;;;5076046;28;20074;-80
2021/08/07 03:25:27;;;;;;;18.98;11.07;;;537.80;1894.40;;;;;;5081323;28;20021;-80
2021/08/07 03:27:53;;;;;;;19.48;12.32;;;537.80;1894.40;;;;;;5098214;28;20042;-80
2021/08/07 03:30:19;;;;;;;16.10;11.43;;;537.80;1894.40;;;;;;5098494;28;20024;-79
2021/08/07 03:32:45;;;;;;;19.38;11.98;;;537.70;1894.40;;;;;;5116576;28;20023;-79
2021/08/07 03:35:11;;;;;;;19.20;11.55;;;537.80;1894.40;;;;;;5116650;28;20061;-80
2021/08/07 03:37:37;;;;;;;15.95;10.73;;;537.70;1894.40;;;;;;5116722;28;20070;-80
2021/08/07 03:40:04;;;;;;;18.77;11.07;;;537.70;1894.40;;;;;;5116488;28;20020;-80
2021/08/07 03:42:30;;;;;;;17.52;10.88;;;537.70;1894.40;;;;;;5116752;28;20431;-81
2021/08/07 03:44:56;;;;;;;22.25;10.63;;;537.70;1894.40;;;;;;5098090;28;20020;-81
2021/08/07 03:47:22;;;;;;;17.23;10.82;;;537.70;1894.40;;;;;;5116252;28;20031;-81
2021/08/07 03:49:48;;;;;;;20.02;11.35;;;537.70;1894.40;;;;;;5116288;28;20102;-82
2021/08/07 03:52:14;;;;;;;18.45;9.95;;;537.70;1894.40;;;;;;5116588;28;20119;-81
2021/08/07 03:54:40;;;;;;;19.85;10.10;;;537.60;1894.40;;;;;;5098012;28;20476;-80
2021/08/07 03:57:06;;;;;;;22.65;10.32;;;537.60;1894.40;;;;;;5097865;28;20023;-81
2021/08/07 03:59:32;;;;;;;17.83;9.18;;;537.60;1894.40;;;;;;5116357;28;20027;-81
2021/08/07 04:01:58;;;;;;;17.13;9.18;;;537.60;1894.40;;;;;;5116075;28;20042;-79
2021/08/07 04:04:24;;;;;;;12.77;8.77;;;537.60;1894.40;;;;;;5097442;28;20539;-83
2021/08/07 04:06:50;;;;;;;17.65;9.45;;;537.70;1894.40;;;;;;5116114;28;20023;-82
2021/08/07 04:09:16;;;;;;;12.65;8.23;;;537.60;1894.40;;;;;;5116253;28;20071;-82
2021/08/07 04:11:42;;;;;;;15.38;9.02;;;537.70;1894.40;;;;;;5115833;28;20026;-82
2021/08/07 04:14:08;;;;;;;14.32;8.45;;;537.70;1894.40;;;;;;5115898;28;20031;-83
2021/08/07 04:16:35;;;;;;;13.63;7.85;;;537.60;1894.40;;;;;;5115769;28;20511;-82
2021/08/07 04:19:01;;;;;;;13.40;7.95;;;537.60;1894.40;;;;;;5097461;28;20513;-80
2021/08/07 04:21:27;;;;;;;11.55;7.28;;;537.70;1894.40;;;;;;5097373;28;20020;-80
2021/08/07 04:23:53;;;;;;;13.80;7.80;;;537.60;1894.40;;;;;;5123789;27;20020;-80
2021/08/07 04:26:18;;;;;;;13.95;7.90;;;537.70;1894.40;;;;;;5129413;27;20040;-81
2021/08/07 04:28:44;;;;;;;15.15;7.00;;;537.70;1894.40;;;;;;5115589;28;20026;-81
2021/08/07 04:31:10;;;;;;;11.27;7.10;;;537.70;1894.40;;;;;;5115474;28;20030;-80
2021/08/07 04:33:36;;;;;;;8.88;6.57;;;537.70;1894.40;;;;;;5115059;28;20024;-81
2021/08/07 04:36:04;;;;;;;11.77;6.57;;;537.70;1894.40;;;;;;5115468;28;20517;-81
2021/08/07 04:38:30;;;;;;;14.60;6.88;;;537.70;1894.40;;;;;;5118665;27;20038;-81
2021/08/07 04:40:56;;;;;;;11.52;6.40;;;537.80;1894.40;;;;;;5106363;27;20042;-82
2021/08/07 04:43:22;;;;;;;10.50;6.30;;;537.80;1894.40;;;;;;5136013;27;20072;-81
2021/08/07 04:45:48;;;;;;;11.70;5.97;;;537.80;1894.40;;;;;;5136023;27;20015;-82
2021/08/07 04:48:14;;;;;;;8.57;6.07;;;537.90;1894.40;;;;;;5135615;27;20027;-82
2021/08/07 04:50:40;;;;;;;10.43;5.97;;;537.90;1894.40;;;;;;5117665;27;20019;-82
2021/08/07 04:53:07;;;;;;;7.38;5.53;;;538.00;1894.40;;;;;;5135948;27;20027;-82
2021/08/07 04:55:34;;;;;;;10.82;5.13;;;538.00;1894.40;;;;;;5117574;27;20490;-82
2021/08/07 04:58:00;;;;;;;9.35;5.53;;;538.00;1894.40;;;;;;5135674;27;20039;-82
2021/08/07 05:00:26;;;;;;;7.90;5.18;;;538.10;1894.40;;;;;;5117428;27;20019;-82
2021/08/07 05:02:52;;;;;;;6.68;5.00;;;538.10;1894.40;;;;;;5135754;27;20116;-83
2021/08/07 05:05:18;;;;;;;9.52;4.75;;;538.10;1894.40;;;;;;5117539;27;20019;-83
2021/08/07 05:07:45;;;;;;;8.10;5.63;;;538.10;1894.40;;;;;;5117632;27;20031;-83
2021/08/07 05:10:11;;;;;;;7.50;4.97;;;538.10;1894.40;;;;;;5117443;27;20520;-82
2021/08/07 05:12:38;;;;;;;8.27;4.82;;;538.20;1894.40;;;;;;5117420;27;20031;-83
2021/08/07 05:15:05;;;;;;;6.22;4.35;;;538.20;1894.40;;;;;;5116614;28;20019;-83
2021/08/07 05:17:31;;;;;;;6.28;4.68;;;538.20;1894.40;;;;;;5135291;27;20027;-79
2021/08/07 05:19:57;;;;;;;5.15;4.60;;;538.30;1894.40;;;;;;5116689;27;20057;-78
2021/08/07 05:22:23;;;;;;;6.72;4.30;;;538.30;1894.40;;;;;;5135204;27;20030;-78
2021/08/07 05:24:50;;;;;;;13.25;4.18;;;538.40;1868.80;;;;;;5134937;27;20054;-82
2021/08/07 05:27:16;;;;;;;6.05;3.95;;;538.40;1894.40;;;;;;5113402;28;20046;-83
2021/08/07 05:29:42;;;;;;;6.13;4.18;;;538.40;1868.80;;;;;;5114606;28;20023;-81
2021/08/07 05:32:08;;;;;;;5.28;3.63;;;538.50;1868.80;;;;;;5113375;28;20027;-80
2021/08/07 05:34:34;;;;;;;8.05;3.80;;;538.50;1868.80;;;;;;5113042;28;20031;-81
2021/08/07 05:37:00;;;;;;;4.57;3.78;;;538.50;1868.80;;;;;;5114448;28;20153;-81
2021/08/07 05:39:27;;;;;;;5.90;3.83;;;563.20;1894.40;;;;;;5112794;28;20107;-80
2021/08/07 05:41:53;;;;;;;6.60;3.80;;;563.20;1894.40;;;;;;5114259;28;20015;-81
2021/08/07 05:44:19;;;;;;;5.55;3.70;;;563.20;1894.40;;;;;;5114177;28;20023;-79
2021/08/07 05:46:44;;;;;;;9.18;3.55;;;563.20;1894.40;;;;;;5114267;28;20484;-80
2021/08/07 05:49:10;;;;;;;6.18;3.33;;;563.20;1868.80;;;;;;5114275;28;20031;-80
2021/08/07 05:51:36;;;;;;;4.45;3.30;;;563.30;1894.40;;;;;;5112320;28;20114;-78
2021/08/07 05:54:03;;;;;;;6.40;3.42;;;563.40;1868.80;;;;;;5114084;28;20020;-80
2021/08/07 05:56:29;;;;;;;5.93;3.22;;;563.50;1868.80;;;;;;5113019;28;20484;-80
2021/08/07 05:58:55;;;;;;;4.18;2.72;;;563.50;1868.80;;;;;;5114076;28;20088;-84
2021/08/07 06:01:21;;;;;;;4.80;2.63;;;563.60;1868.80;;;;;;5114395;28;20075;-84
2021/08/07 06:03:47;;;;;;;5.53;2.35;;;563.60;1868.80;;;;;;5113241;28;20035;-84
2021/08/07 06:06:13;;;;;;;3.17;2.45;;;563.70;1868.80;;;;;;5113196;28;20027;-84
2021/08/07 06:08:39;;;;;;;3.85;2.30;;;563.70;1843.20;;;;;;5113273;28;20031;-83
2021/08/07 06:11:05;;;;;;;3.78;2.58;;;563.70;1868.80;;;;;;5112685;28;20019;-83
2021/08/07 06:13:31;;;;;;;3.92;2.30;;;563.70;1868.80;;;;;;5114163;28;20493;-83
2021/08/07 06:15:57;;;;;;;3.50;2.40;;;563.80;1843.20;;;;;;5114072;28;20024;-83
2021/08/07 06:18:23;;;;;;;3.72;1.80;;;563.80;1843.20;;;;;;5113911;28;20039;-83
2021/08/07 06:20:49;;;;;;;5.10;2.10;;;563.90;1843.20;;;;;;5114140;28;20019;-83
2021/08/07 06:23:15;;;;;;;3.42;2.30;;;564.00;1843.20;;;;;;5113962;28;20035;-84
2021/08/07 06:25:42;;;;;;;6.00;2.55;;;564.10;1843.20;;;;;;5116699;28;20024;-84
2021/08/07 06:28:08;;;;;;;4.13;2.25;;;564.10;1843.20;;;;;;5119522;27;20062;-83
2021/08/07 06:30:35;;;;;;;4.45;2.70;;;588.80;1843.20;;;;;;5138367;27;20064;-79
2021/08/07 06:33:01;;;;;;;4.53;2.47;;;588.80;1843.20;;;;;;5138436;27;20076;-82
2021/08/07 06:35:27;;;;;;;3.08;2.17;;;589.00;1817.60;;;;;;5119783;27;20015;-82
2021/08/07 06:37:54;;;;;;;3.78;1.88;;;589.10;1817.60;;;;;;5119994;27;20539;-80
2021/08/07 06:40:21;;;;;;;3.85;2.20;;;589.10;1817.60;;;;;;5138334;27;20019;-81
2021/08/07 06:42:47;;;;;;;4.85;1.60;;;589.20;1792.00;;;;;;5138447;27;20098;-81
2021/08/07 06:45:13;;;;;;;2.85;1.88;;;589.40;1766.40;;;;;;5119491;27;20454;-80
2021/08/07 06:47:39;;;;;;;2.88;1.88;;;589.50;1766.40;;;;;;5119988;27;20065;-83
2021/08/07 06:50:06;;;;;;;3.55;2.00;;;589.70;1715.20;;;;;;5138302;27;20031;-83
2021/08/07 06:52:34;;;;;;;5.60;1.80;;;614.40;1715.20;;;;;;5138312;27;20019;-82
2021/08/07 06:55:01;;;;;;;4.80;1.80;;;614.50;1740.80;;;;;;5119492;27;20026;-82
2021/08/07 06:57:26;;;;;;;6.85;1.90;;;614.50;1715.20;;;;;;5113528;28;20031;-81
2021/08/07 06:59:53;;;;;;;3.80;1.73;;;614.60;1715.20;;;;;;5099244;28;20028;-81
2021/08/07 07:02:19;;;;;;;4.53;1.83;;;614.80;1689.60;;;;;;5117559;28;20024;-81
2021/08/07 07:04:46;;;;;;;3.65;1.80;;;614.90;1689.60;;;;;;5117154;28;20034;-81
2021/08/07 07:07:12;;;;;;;3.42;1.55;;;614.90;1689.60;;;;;;5129635;27;20019;-81
2021/08/07 07:09:38;;;;;;;5.43;1.98;;;615.00;1664.00;;;;;;5118860;27;20020;-81
2021/08/07 07:12:04;;;;;;;3.50;1.83;;;615.10;1638.40;;;;;;5099031;28;20038;-82
2021/08/07 07:14:30;;;;;;;2.47;1.80;;;615.20;1638.40;;;;;;5096270;28;20028;-77
2021/08/07 07:16:56;;;;;;;2.92;1.63;;;615.30;1638.40;;;;;;5078387;28;20517;-79
2021/08/07 07:19:25;;;;;;;2.72;1.63;;;615.30;1638.40;;;;;;5078584;28;20392;-81
2021/08/07 07:21:51;;;;;;;8.15;2.15;;;640.00;1638.40;;;;;;5096230;28;20016;-77
2021/08/07 07:24:17;;;;;;;8.02;1.73;;;640.00;1638.40;;;;;;5096536;28;20027;-78
2021/08/07 07:26:43;;;;;;;6.80;1.90;;;640.00;1612.80;;;;;;5077673;28;20044;-78
2021/08/07 07:29:09;;;;;;;8.63;2.15;;;640.10;1612.80;;;;;;5095963;28;20016;-76
2021/08/07 07:31:35;;;;;;;7.95;1.90;;;640.20;1638.40;;;;;;5095951;28;20482;-77
2021/08/07 07:34:01;;;;;;;23.13;2.45;;;640.20;1612.80;;;;;;5095887;28;20050;-77
2021/08/07 07:36:27;;;;;;;7.68;1.90;;;640.30;1612.80;;;;;;5103969;28;20023;-77
2021/08/07 07:38:52;;;;;;;2.55;1.40;;;640.30;1587.20;;;;;;5102035;28;20032;-79
2021/08/07 07:41:18;;;;;;;12.07;1.83;;;640.40;1561.60;;;;;;5097851;27;20020;-78
2021/08/07 07:43:44;;;;;;;10.02;2.25;;;640.40;1587.20;;;;;;5123833;27;20434;-79
2021/08/07 07:46:10;;;;;;;17.08;2.28;;;640.50;1587.20;;;;;;5124736;27;20023;-78
2021/08/07 07:48:36;;;;;;;7.32;1.63;;;640.50;1612.80;;;;;;5123340;27;20015;-81
2021/08/07 07:51:02;;;;;;;9.93;2.00;;;640.50;1612.80;;;;;;5119103;27;20027;-79
2021/08/07 07:53:28;;;;;;;11.52;2.20;;;640.60;1561.60;;;;;;5125813;27;20110;-81
2021/08/07 07:55:54;;;;;;;20.70;2.25;;;640.60;1587.20;;;;;;5102602;27;20456;-79
2021/08/07 07:58:20;;;;;;;21.45;2.15;;;640.70;1587.20;;;;;;5111353;27;20027;-80
2021/08/07 08:00:46;;;;;;;19.75;2.38;;;640.70;1587.20;;;;;;5130934;27;20434;-78
2021/08/07 08:03:11;;;;;;;17.20;2.60;;;640.70;1587.20;;;;;;5102090;28;20026;-78
2021/08/07 08:05:37;;;;;;;15.30;2.13;;;640.70;1587.20;;;;;;5129403;27;20094;-78
2021/08/07 08:08:03;;;;;;;17.98;2.30;;;640.70;1587.20;;;;;;5128431;27;20027;-78
2021/08/07 08:10:29;;;;;;;11.13;2.58;;;640.70;1587.20;;;;;;5109535;27;20016;-77
2021/08/07 08:12:55;;;;;;;15.57;2.60;;;640.80;1561.60;;;;;;5118139;27;20022;-78
2021/08/07 08:15:21;;;;;;;10.32;1.95;;;640.80;1561.60;;;;;;5094285;28;20183;-79
2021/08/07 08:17:47;;;;;;;17.02;2.25;;;640.80;1561.60;;;;;;5095302;28;20032;-79
2021/08/07 08:20:14;;;;;;;18.38;2.30;;;640.80;1561.60;;;;;;5095385;28;20031;-78
2021/08/07 08:22:40;;;;;;;15.32;2.38;;;640.80;1561.60;;;;;;5113638;28;20343;-78
2021/08/07 08:25:10;;;;;;;18.35;2.13;;;640.70;1561.60;;;;;;5113618;28;20098;-77
2021/08/07 08:27:36;;;;;;;9.30;1.67;;;640.80;1561.60;;;;;;5114057;28;20043;-78
2021/08/07 08:30:04;;;;;;;7.72;2.05;;;640.80;1587.20;;;;;;5096831;28;20437;-82
2021/08/07 08:32:29;;;;;;;14.27;2.13;;;640.80;1510.40;;;;;;5096948;28;20072;-78
2021/08/07 08:34:55;;;;;;;7.43;2.10;;;665.60;1561.60;;;;;;5115625;28;20028;-78
2021/08/07 08:37:21;;;;;;;6.80;1.77;;;640.90;1561.60;;;;;;5114645;28;20032;-77
2021/08/07 08:39:47;;;;;;;4.00;1.60;;;640.80;1561.60;;;;;;5115261;28;20055;-76
2021/08/07 08:42:13;;;;;;;7.10;1.67;;;640.90;1561.60;;;;;;5096875;28;20400;-76
2021/08/07 08:44:39;;;;;;;8.57;1.88;;;665.60;1561.60;;;;;;5115162;28;20031;-79
2021/08/07 08:47:07;;;;;;;9.93;2.10;;;640.90;1536.00;;;;;;5096676;28;20480;-78
2021/08/07 08:49:34;;;;;;;3.72;1.33;;;640.90;1561.60;;;;;;5096602;28;20035;-77
2021/08/07 08:52:01;;;;;;;6.88;1.88;;;640.80;1561.60;;;;;;5114640;28;20041;-76
2021/08/07 08:54:28;;;;;;;5.50;1.85;;;640.80;1561.60;;;;;;5114699;28;20058;-77
2021/08/07 08:56:55;;;;;;;103.00;7.00;;;640.80;1561.60;;;;;;5114627;28;20464;-77
2021/08/07 08:59:22;;;;;;;10.32;2.15;;;640.80;1587.20;;;;;;5114437;28;20092;-77
2021/08/07 09:01:50;;;;;;;44.35;3.75;;;640.80;1536.00;;;;;;5095858;28;20028;-77
2021/08/07 09:04:16;;;;;;;19.67;2.30;;;640.90;1587.20;;;;;;5114447;28;20023;-78
2021/08/07 09:06:42;;;;;;;5.97;2.05;;;640.80;1561.60;;;;;;5096102;28;20058;-77
2021/08/07 09:09:11;;;;;;;12.23;2.15;;;640.80;1561.60;;;;;;5096167;28;20024;-78
2021/08/07 09:11:46;;;;;;;15.65;1.92;;;640.80;1561.60;;;;;;5096059;28;20023;-75
2021/08/07 09:14:23;;;;;;;7.80;1.70;;;640.80;1536.00;;;;;;5114256;28;20357;-77
2021/08/07 09:17:01;;;;;;;6.32;1.55;;;640.90;1536.00;;;;;;5114231;28;20027;-77
2021/08/07 09:19:28;;;;;;;5.75;1.70;;;640.90;1536.00;;;;;;5114278;28;20110;-77
2021/08/07 09:22:08;;;;;;;4.05;1.55;;;640.90;1536.00;;;;;;5113781;28;20024;-78
2021/08/07 09:24:52;;;;;;;4.20;1.50;;;640.80;1536.00;;;;;;5095985;28;20031;-77
2021/08/07 09:27:34;;;;;;;5.35;1.80;;;640.80;1536.00;;;;;;5076373;28;20052;-77
2021/08/07 09:30:03;;;;;;;7.55;1.60;;;665.60;1561.60;;;;;;5074006;28;20020;-77
2021/08/07 09:33:19;;;;;;;13.95;1.80;;;640.90;1536.00;;;;;;5071777;28;20117;-76
2021/08/07 09:35:46;;;;;;;8.65;1.80;;;665.60;1561.60;;;;;;5051945;28;20025;-78
2021/08/07 09:38:22;;;;;;;7.38;1.27;;;640.90;1536.00;;;;;;5034917;28;20045;-79
2021/08/07 09:40:54;;;;;;;12.77;1.67;;;640.90;1536.00;;;;;;5034813;28;20021;-81
2021/08/07 09:43:44;;;;;;;6.28;1.52;;;640.90;1536.00;;;;;;5034734;28;20037;-77
2021/08/07 09:46:24;;;;;;;9.43;1.83;;;665.60;1561.60;;;;;;5034296;28;20120;-77
2021/08/07 09:48:55;;;;;;;2.95;1.60;;;665.70;1536.00;;;;;;5034606;28;20428;-78
2021/08/07 09:51:27;;;;;;;5.82;1.60;;;665.60;1561.60;;;;;;5051058;28;20028;-78
2021/08/07 09:54:05;;;;;;;3.38;1.38;;;640.80;1536.00;;;;;;5051184;28;20033;-77
2021/08/07 09:56:49;;;;;;;7.35;1.20;;;640.90;1536.00;;;;;;5034456;28;20517;-77
2021/08/07 09:59:16;;;;;;;4.78;1.27;;;665.60;1561.60;;;;;;5050980;28;20049;-77
2021/08/07 10:01:42;;;;;;;2.40;1.40;;;665.60;1561.60;;;;;;5051964;28;20031;-77
2021/08/07 10:04:11;;;;;;;2.25;1.25;;;665.60;1561.60;;;;;;5055058;28;20033;-78
2021/08/07 10:06:37;;;;;;;4.45;1.50;;;665.60;1561.60;;;;;;5038449;28;20021;-77
2021/08/07 10:09:05;;;;;;;5.00;1.55;;;665.60;1561.60;;;;;;5062279;28;20025;-77
2021/08/07 10:11:32;;;;;;;3.50;1.38;;;665.60;1561.60;;;;;;5076757;28;20111;-78
2021/08/07 10:13:58;;;;;;;2.35;1.17;;;665.80;1484.80;;;;;;5075714;28;20025;-77
2021/08/07 10:16:25;;;;;;;2.33;1.27;;;665.80;1536.00;;;;;;5075707;28;20392;-77
2021/08/07 10:18:52;;;;;;;4.65;1.40;;;665.70;1561.60;;;;;;5075764;28;20040;-78
2021/08/07 10:21:19;;;;;;;5.88;1.30;;;665.70;1561.60;;;;;;5075980;28;20025;-77
2021/08/07 10:23:47;;;;;;;4.78;1.45;;;665.80;1510.40;;;;;;5077150;28;20082;-81
2021/08/07 10:26:19;;;;;;;6.35;1.60;;;665.80;1536.00;;;;;;5090391;28;20075;-78
2021/08/07 10:29:05;;;;;;;2.88;1.50;;;665.80;1510.40;;;;;;5117559;28;20087;-79
2021/08/07 10:31:33;;;;;;;2.80;1.65;;;665.80;1536.00;;;;;;5099513;28;20054;-79
2021/08/07 10:34:05;;;;;;;5.20;1.58;;;665.70;1536.00;;;;;;5099257;28;20472;-76
2021/08/07 10:36:35;;;;;;;13.10;2.97;;;665.70;1536.00;;;;;;5117447;28;20027;-78
2021/08/07 10:39:05;;;;;;;14.23;4.50;;;665.80;1536.00;;;;;;5099026;28;20035;-78
2021/08/07 10:41:31;;;;;;;11.38;3.80;;;666.00;1510.40;;;;;;5098952;28;20372;-76
2021/08/07 10:43:59;;;;;;;12.43;3.33;;;665.90;1510.40;;;;;;5117176;28;20016;-77
2021/08/07 10:46:26;;;;;;;7.72;2.53;;;665.90;1536.00;;;;;;5098928;28;20059;-77
2021/08/07 10:48:53;;;;;;;16.67;7.55;;;665.80;1536.00;;;;;;5099096;28;20085;-77
2021/08/07 10:51:19;;;;;;;7.90;2.75;;;666.00;1510.40;;;;;;5117015;28;20020;-77
2021/08/07 10:53:47;;;;;;;10.60;3.70;;;665.90;1510.40;;;;;;5117091;28;20077;-77
2021/08/07 10:56:42;;;;;;;7.97;5.70;;;665.90;1484.80;;;;;;5116910;28;20019;-77
2021/08/07 10:59:11;;;;;;;8.80;3.30;;;666.00;1510.40;;;;;;5115113;28;20040;-77
2021/08/07 11:01:48;;;;;;;4.60;3.17;;;666.00;1510.40;;;;;;5116897;28;20047;-78
2021/08/07 11:04:20;;;;;;;9.02;4.30;;;666.00;1510.40;;;;;;5116795;28;20028;-77
2021/08/07 11:06:49;;;;;;;6.25;4.90;;;666.00;1510.40;;;;;;5116899;28;20019;-78
2021/08/07 11:09:17;;;;;;;6.47;3.28;;;665.90;1510.40;;;;;;5098291;28;20020;-77
2021/08/07 11:11:44;;;;;;;7.80;2.90;;;665.90;1510.40;;;;;;5098279;28;20024;-77
2021/08/07 11:14:25;;;;;;;4.38;2.90;;;665.90;1510.40;;;;;;5114983;28;20020;-78
2021/08/07 11:17:03;;;;;;;4.18;2.75;;;666.00;1484.80;;;;;;5098579;28;20031;-77
2021/08/07 11:19:48;;;;;;;4.13;2.55;;;666.00;1484.80;;;;;;5116462;28;20039;-78
2021/08/07 11:22:32;;;;;;;4.70;2.25;;;666.10;1459.20;;;;;;5116482;28;20076;-77
2021/08/07 11:25:04;;;;;;;6.03;3.35;;;666.00;1484.80;;;;;;5112742;28;20027;-76
2021/08/07 11:27:55;;;;;;;5.72;3.20;;;666.10;1484.80;;;;;;5115661;28;20052;-78
2021/08/07 11:30:21;;;;;;;7.68;4.05;;;666.10;1484.80;;;;;;5097916;28;20032;-78
2021/08/07 11:32:56;;;;;;;18.73;3.75;;;666.00;1484.80;;;;;;5116721;28;20051;-78
2021/08/07 11:35:33;;;;;;;19.02;4.22;;;666.00;1484.80;;;;;;5116239;28;20032;-78
2021/08/07 11:38:22;;;;;;;18.73;3.00;;;666.00;1510.40;;;;;;5098019;28;20043;-77
2021/08/07 11:41:08;;;;;;;16.25;3.20;;;666.00;1510.40;;;;;;5097805;28;20055;-78
2021/08/07 11:43:36;;;;;;;26.42;3.58;;;666.00;1510.40;;;;;;5097858;28;20028;-79
2021/08/07 11:46:02;;;;;;;48.78;4.70;;;666.10;1510.40;;;;;;5116092;28;20020;-78
2021/08/07 11:48:30;;;;;;;19.23;3.63;;;666.30;1484.80;;;;;;5115561;28;20023;-77
2021/08/07 11:50:58;;;;;;;9.63;1.95;;;666.30;1484.80;;;;;;5115704;28;20020;-78
2021/08/07 11:53:26;;;;;;;8.77;1.88;;;666.20;1484.80;;;;;;5097554;28;20118;-77
2021/08/07 11:56:07;;;;;;;14.35;1.98;;;666.10;1484.80;;;;;;5097142;28;20022;-78
2021/08/07 11:58:41;;;;;;;4.82;1.58;;;666.10;1510.40;;;;;;5097014;28;20379;-76
2021/08/07 12:01:07;;;;;;;3.97;1.65;;;666.10;1510.40;;;;;;5097405;28;20028;-77
2021/08/07 12:03:43;;;;;;;5.80;1.75;;;666.10;1510.40;;;;;;5097357;28;20030;-77
2021/08/07 12:06:11;;;;;;;10.75;1.98;;;666.20;1510.40;;;;;;5097404;28;20024;-77
2021/08/07 12:08:37;;;;;;;3.85;1.35;;;666.30;1484.80;;;;;;5115268;28;20541;-76
2021/08/07 12:11:12;;;;;;;7.32;1.48;;;691.20;1433.60;;;;;;5115419;28;20012;-77
2021/08/07 12:13:50;;;;;;;4.50;1.40;;;666.50;1459.20;;;;;;5097144;28;20076;-77
2021/08/07 12:16:31;;;;;;;4.53;1.50;;;666.40;1484.80;;;;;;5097039;28;20480;-77
2021/08/07 12:19:00;;;;;;;2.42;1.20;;;666.40;1484.80;;;;;;5114890;28;20487;-77
2021/08/07 12:21:32;;;;;;;4.90;1.48;;;666.40;1484.80;;;;;;5115294;28;20056;-77